sensor_id;sensor_type;location;lat;lon;timestamp;P1;durP1;ratioP1;P2;durP2;ratioP2
30420;SDS011;17218;54.070;10.012;2022-12-18T00:01:14;23.43;;;12.83;;
30420;SDS011;17218;54.070;10.012;2022-12-18T00:03:42;19.13;;;12.40;;
30420;SDS011;17218;54.070;10.012;2022-12-18T00:06:08;22.13;;;12.03;;
30420;SDS011;17218;54.070;10.012;2022-12-18T00:08:35;18.27;;;10.93;;
30420;SDS011;17218;54.070;10.012;2022-12-18T00:11:03;23.70;;;12.97;;
30420;SDS011;17218;54.070;10.012;2022-12-18T00:13:31;18.37;;;11.53;;
30420;SDS011;17218;54.070;10.012;2022-12-18T00:16:01;24.10;;;12.43;;
30420;SDS011;17218;54.070;10.012;2022-12-18T00:18:28;21.47;;;11.90;;
30420;SDS011;17218;54.070;10.012;2022-12-18T00:20:57;17.30;;;11.20;;
30420;SDS011;17218;54.070;10.012;2022-12-18T00:23:25;18.93;;;11.47;;
30420;SDS011;17218;54.070;10.012;2022-12-18T00:25:52;17.97;;;11.43;;
30420;SDS011;17218;54.070;10.012;2022-12-18T00:28:18;21.57;;;10.97;;
30420;SDS011;17218;54.070;10.012;2022-12-18T00:30:46;19.87;;;12.33;;
30420;SDS011;17218;54.070;10.012;2022-12-18T00:33:16;19.60;;;10.93;;
30420;SDS011;17218;54.070;10.012;2022-12-18T00:35:43;19.03;;;11.80;;
30420;SDS011;17218;54.070;10.012;2022-12-18T00:38:09;18.37;;;11.73;;
30420;SDS011;17218;54.070;10.012;2022-12-18T00:40:36;18.80;;;11.07;;
30420;SDS011;17218;54.070;10.012;2022-12-18T00:43:02;16.83;;;10.90;;
30420;SDS011;17218;54.070;10.012;2022-12-18T00:45:29;17.43;;;10.67;;
30420;SDS011;17218;54.070;10.012;2022-12-18T00:47:58;15.47;;;8.80;;
30420;SDS011;17218;54.070;10.012;2022-12-18T00:50:24;13.70;;;9.67;;
30420;SDS011;17218;54.070;10.012;2022-12-18T00:52:51;17.97;;;10.03;;
30420;SDS011;17218;54.070;10.012;2022-12-18T00:55:18;18.67;;;11.43;;
30420;SDS011;17218;54.070;10.012;2022-12-18T00:57:45;21.27;;;10.90;;
30420;SDS011;17218;54.070;10.012;2022-12-18T01:00:12;12.83;;;9.07;;
30420;SDS011;17218;54.070;10.012;2022-12-18T01:02:40;20.13;;;11.17;;
30420;SDS011;17218;54.070;10.012;2022-12-18T01:05:09;19.17;;;10.47;;
30420;SDS011;17218;54.070;10.012;2022-12-18T01:07:37;17.37;;;10.97;;
30420;SDS011;17218;54.070;10.012;2022-12-18T01:10:04;16.27;;;9.97;;
30420;SDS011;17218;54.070;10.012;2022-12-18T01:12:32;18.97;;;10.90;;
30420;SDS011;17218;54.070;10.012;2022-12-18T01:14:59;17.87;;;11.20;;
30420;SDS011;17218;54.070;10.012;2022-12-18T01:17:26;15.80;;;10.27;;
30420;SDS011;17218;54.070;10.012;2022-12-18T01:19:53;16.27;;;9.30;;
30420;SDS011;17218;54.070;10.012;2022-12-18T01:22:21;17.03;;;10.73;;
30420;SDS011;17218;54.070;10.012;2022-12-18T01:24:47;22.40;;;10.53;;
30420;SDS011;17218;54.070;10.012;2022-12-18T01:27:14;18.37;;;10.50;;
30420;SDS011;17218;54.070;10.012;2022-12-18T01:29:40;18.23;;;10.63;;
30420;SDS011;17218;54.070;10.012;2022-12-18T01:32:07;18.30;;;10.63;;
30420;SDS011;17218;54.070;10.012;2022-12-18T01:34:34;16.37;;;10.60;;
30420;SDS011;17218;54.070;10.012;2022-12-18T01:37:02;16.50;;;10.23;;
30420;SDS011;17218;54.070;10.012;2022-12-18T01:39:30;16.77;;;11.40;;
30420;SDS011;17218;54.070;10.012;2022-12-18T01:41:57;19.10;;;10.43;;
30420;SDS011;17218;54.070;10.012;2022-12-18T01:47:23;15.50;;;9.30;;
30420;SDS011;17218;54.070;10.012;2022-12-18T01:49:52;15.00;;;9.43;;
30420;SDS011;17218;54.070;10.012;2022-12-18T01:52:20;18.07;;;11.43;;
30420;SDS011;17218;54.070;10.012;2022-12-18T01:54:49;15.90;;;10.00;;
30420;SDS011;17218;54.070;10.012;2022-12-18T01:57:18;16.07;;;8.43;;
30420;SDS011;17218;54.070;10.012;2022-12-18T01:59:45;17.47;;;10.07;;
30420;SDS011;17218;54.070;10.012;2022-12-18T02:02:16;14.97;;;10.80;;
30420;SDS011;17218;54.070;10.012;2022-12-18T02:04:43;17.73;;;10.00;;
30420;SDS011;17218;54.070;10.012;2022-12-18T02:07:10;21.70;;;11.33;;
30420;SDS011;17218;54.070;10.012;2022-12-18T02:09:44;17.53;;;10.00;;
30420;SDS011;17218;54.070;10.012;2022-12-18T02:12:18;19.63;;;10.40;;
30420;SDS011;17218;54.070;10.012;2022-12-18T02:14:49;18.30;;;10.33;;
30420;SDS011;17218;54.070;10.012;2022-12-18T02:17:25;16.23;;;10.20;;
30420;SDS011;17218;54.070;10.012;2022-12-18T02:20:01;16.40;;;9.83;;
30420;SDS011;17218;54.070;10.012;2022-12-18T02:22:36;16.13;;;9.10;;
30420;SDS011;17218;54.070;10.012;2022-12-18T02:25:13;13.53;;;9.47;;
30420;SDS011;17218;54.070;10.012;2022-12-18T02:27:50;13.77;;;8.80;;
30420;SDS011;17218;54.070;10.012;2022-12-18T02:30:18;14.53;;;8.43;;
30420;SDS011;17218;54.070;10.012;2022-12-18T02:32:46;16.70;;;9.87;;
30420;SDS011;17218;54.070;10.012;2022-12-18T02:35:16;16.83;;;10.50;;
30420;SDS011;17218;54.070;10.012;2022-12-18T02:37:46;12.13;;;9.00;;
30420;SDS011;17218;54.070;10.012;2022-12-18T02:40:14;17.33;;;10.17;;
30420;SDS011;17218;54.070;10.012;2022-12-18T02:42:43;17.17;;;9.77;;
30420;SDS011;17218;54.070;10.012;2022-12-18T02:45:11;18.23;;;9.93;;
30420;SDS011;17218;54.070;10.012;2022-12-18T02:47:38;15.87;;;9.50;;
30420;SDS011;17218;54.070;10.012;2022-12-18T02:50:10;16.70;;;8.97;;
30420;SDS011;17218;54.070;10.012;2022-12-18T02:52:46;17.07;;;9.73;;
30420;SDS011;17218;54.070;10.012;2022-12-18T02:55:28;15.83;;;8.87;;
30420;SDS011;17218;54.070;10.012;2022-12-18T02:58:02;16.23;;;8.87;;
30420;SDS011;17218;54.070;10.012;2022-12-18T03:00:36;15.93;;;9.70;;
30420;SDS011;17218;54.070;10.012;2022-12-18T03:03:09;15.03;;;8.93;;
30420;SDS011;17218;54.070;10.012;2022-12-18T03:05:41;15.67;;;9.97;;
30420;SDS011;17218;54.070;10.012;2022-12-18T03:08:14;14.37;;;9.57;;
30420;SDS011;17218;54.070;10.012;2022-12-18T03:10:45;15.07;;;9.10;;
30420;SDS011;17218;54.070;10.012;2022-12-18T03:13:18;14.20;;;9.07;;
30420;SDS011;17218;54.070;10.012;2022-12-18T03:15:53;13.73;;;9.03;;
30420;SDS011;17218;54.070;10.012;2022-12-18T03:18:23;14.37;;;8.63;;
30420;SDS011;17218;54.070;10.012;2022-12-18T03:20:53;13.03;;;8.40;;
30420;SDS011;17218;54.070;10.012;2022-12-18T03:23:27;16.70;;;10.00;;
30420;SDS011;17218;54.070;10.012;2022-12-18T03:25:59;13.50;;;9.03;;
30420;SDS011;17218;54.070;10.012;2022-12-18T03:28:30;15.37;;;8.60;;
30420;SDS011;17218;54.070;10.012;2022-12-18T03:31:02;20.13;;;10.57;;
30420;SDS011;17218;54.070;10.012;2022-12-18T03:33:32;15.10;;;8.50;;
30420;SDS011;17218;54.070;10.012;2022-12-18T03:36:02;18.53;;;9.27;;
30420;SDS011;17218;54.070;10.012;2022-12-18T03:38:29;15.40;;;8.63;;
30420;SDS011;17218;54.070;10.012;2022-12-18T03:40:58;14.33;;;10.23;;
30420;SDS011;17218;54.070;10.012;2022-12-18T03:43:32;12.60;;;8.33;;
30420;SDS011;17218;54.070;10.012;2022-12-18T03:46:06;17.03;;;10.30;;
30420;SDS011;17218;54.070;10.012;2022-12-18T03:48:41;12.30;;;8.47;;
30420;SDS011;17218;54.070;10.012;2022-12-18T03:51:11;11.77;;;7.77;;
30420;SDS011;17218;54.070;10.012;2022-12-18T03:53:44;14.43;;;8.97;;
30420;SDS011;17218;54.070;10.012;2022-12-18T03:56:17;12.30;;;8.57;;
30420;SDS011;17218;54.070;10.012;2022-12-18T03:58:47;12.63;;;8.00;;
30420;SDS011;17218;54.070;10.012;2022-12-18T04:01:17;17.77;;;8.90;;
30420;SDS011;17218;54.070;10.012;2022-12-18T04:03:48;15.57;;;8.07;;
30420;SDS011;17218;54.070;10.012;2022-12-18T04:06:16;13.93;;;8.00;;
30420;SDS011;17218;54.070;10.012;2022-12-18T04:08:44;14.87;;;8.37;;
30420;SDS011;17218;54.070;10.012;2022-12-18T04:11:12;14.83;;;9.27;;
30420;SDS011;17218;54.070;10.012;2022-12-18T04:13:38;14.37;;;8.67;;
30420;SDS011;17218;54.070;10.012;2022-12-18T04:16:05;15.33;;;8.87;;
30420;SDS011;17218;54.070;10.012;2022-12-18T04:18:34;11.03;;;8.13;;
30420;SDS011;17218;54.070;10.012;2022-12-18T04:21:00;15.83;;;7.93;;
30420;SDS011;17218;54.070;10.012;2022-12-18T04:23:27;12.20;;;8.50;;
30420;SDS011;17218;54.070;10.012;2022-12-18T04:25:54;11.27;;;7.87;;
30420;SDS011;17218;54.070;10.012;2022-12-18T04:28:21;15.57;;;8.90;;
30420;SDS011;17218;54.070;10.012;2022-12-18T04:30:47;14.37;;;8.83;;
30420;SDS011;17218;54.070;10.012;2022-12-18T04:33:17;13.90;;;8.33;;
30420;SDS011;17218;54.070;10.012;2022-12-18T04:35:45;12.20;;;8.13;;
30420;SDS011;17218;54.070;10.012;2022-12-18T04:38:12;16.27;;;8.10;;
30420;SDS011;17218;54.070;10.012;2022-12-18T04:40:39;15.83;;;8.50;;
30420;SDS011;17218;54.070;10.012;2022-12-18T04:43:05;15.00;;;9.17;;
30420;SDS011;17218;54.070;10.012;2022-12-18T04:45:32;15.27;;;7.03;;
30420;SDS011;17218;54.070;10.012;2022-12-18T04:47:59;14.67;;;7.87;;
30420;SDS011;17218;54.070;10.012;2022-12-18T04:50:26;14.93;;;7.77;;
30420;SDS011;17218;54.070;10.012;2022-12-18T04:52:54;16.77;;;8.83;;
30420;SDS011;17218;54.070;10.012;2022-12-18T04:55:24;13.80;;;8.90;;
30420;SDS011;17218;54.070;10.012;2022-12-18T04:57:51;11.80;;;7.90;;
30420;SDS011;17218;54.070;10.012;2022-12-18T05:00:17;16.53;;;8.03;;
30420;SDS011;17218;54.070;10.012;2022-12-18T05:02:44;16.97;;;9.17;;
30420;SDS011;17218;54.070;10.012;2022-12-18T05:05:11;11.97;;;8.10;;
30420;SDS011;17218;54.070;10.012;2022-12-18T05:07:38;15.13;;;8.90;;
30420;SDS011;17218;54.070;10.012;2022-12-18T05:10:09;16.50;;;9.13;;
30420;SDS011;17218;54.070;10.012;2022-12-18T05:12:36;15.87;;;8.57;;
30420;SDS011;17218;54.070;10.012;2022-12-18T05:15:23;13.53;;;8.70;;
30420;SDS011;17218;54.070;10.012;2022-12-18T05:17:50;13.93;;;7.97;;
30420;SDS011;17218;54.070;10.012;2022-12-18T05:20:17;11.73;;;7.83;;
30420;SDS011;17218;54.070;10.012;2022-12-18T05:22:44;13.27;;;7.60;;
30420;SDS011;17218;54.070;10.012;2022-12-18T05:25:12;15.07;;;8.60;;
30420;SDS011;17218;54.070;10.012;2022-12-18T05:27:38;15.70;;;7.90;;
30420;SDS011;17218;54.070;10.012;2022-12-18T05:30:05;12.53;;;7.63;;
30420;SDS011;17218;54.070;10.012;2022-12-18T05:32:33;15.83;;;7.87;;
30420;SDS011;17218;54.070;10.012;2022-12-18T05:34:59;14.07;;;7.77;;
30420;SDS011;17218;54.070;10.012;2022-12-18T05:37:26;11.23;;;7.17;;
30420;SDS011;17218;54.070;10.012;2022-12-18T05:39:53;12.40;;;7.70;;
30420;SDS011;17218;54.070;10.012;2022-12-18T05:42:21;10.33;;;6.97;;
30420;SDS011;17218;54.070;10.012;2022-12-18T05:44:47;11.80;;;6.97;;
30420;SDS011;17218;54.070;10.012;2022-12-18T05:47:14;9.80;;;6.33;;
30420;SDS011;17218;54.070;10.012;2022-12-18T05:49:40;15.73;;;7.43;;
30420;SDS011;17218;54.070;10.012;2022-12-18T05:52:07;8.50;;;5.97;;
30420;SDS011;17218;54.070;10.012;2022-12-18T05:54:34;11.67;;;6.87;;
30420;SDS011;17218;54.070;10.012;2022-12-18T05:57:01;12.43;;;6.63;;
30420;SDS011;17218;54.070;10.012;2022-12-18T05:59:29;13.27;;;7.27;;
30420;SDS011;17218;54.070;10.012;2022-12-18T06:01:55;10.13;;;6.50;;
30420;SDS011;17218;54.070;10.012;2022-12-18T06:04:22;13.33;;;7.10;;
30420;SDS011;17218;54.070;10.012;2022-12-18T06:06:48;9.63;;;6.10;;
30420;SDS011;17218;54.070;10.012;2022-12-18T06:09:15;10.83;;;6.73;;
30420;SDS011;17218;54.070;10.012;2022-12-18T06:11:41;9.67;;;6.17;;
30420;SDS011;17218;54.070;10.012;2022-12-18T06:14:08;10.43;;;6.43;;
30420;SDS011;17218;54.070;10.012;2022-12-18T06:16:37;11.07;;;6.67;;
30420;SDS011;17218;54.070;10.012;2022-12-18T06:19:04;10.20;;;6.30;;
30420;SDS011;17218;54.070;10.012;2022-12-18T06:21:32;8.20;;;5.23;;
30420;SDS011;17218;54.070;10.012;2022-12-18T06:23:59;11.03;;;6.37;;
30420;SDS011;17218;54.070;10.012;2022-12-18T06:26:25;11.13;;;7.53;;
30420;SDS011;17218;54.070;10.012;2022-12-18T06:28:52;9.73;;;6.33;;
30420;SDS011;17218;54.070;10.012;2022-12-18T06:31:19;8.80;;;6.13;;
30420;SDS011;17218;54.070;10.012;2022-12-18T06:33:46;11.43;;;6.53;;
30420;SDS011;17218;54.070;10.012;2022-12-18T06:36:13;10.80;;;6.73;;
30420;SDS011;17218;54.070;10.012;2022-12-18T06:38:41;9.90;;;6.40;;
30420;SDS011;17218;54.070;10.012;2022-12-18T06:41:10;11.63;;;6.80;;
30420;SDS011;17218;54.070;10.012;2022-12-18T06:43:38;10.40;;;7.03;;
30420;SDS011;17218;54.070;10.012;2022-12-18T06:46:05;9.83;;;6.20;;
30420;SDS011;17218;54.070;10.012;2022-12-18T06:48:31;11.47;;;6.77;;
30420;SDS011;17218;54.070;10.012;2022-12-18T06:51:00;13.53;;;6.97;;
30420;SDS011;17218;54.070;10.012;2022-12-18T06:53:27;10.57;;;6.60;;
30420;SDS011;17218;54.070;10.012;2022-12-18T06:55:59;12.70;;;6.93;;
30420;SDS011;17218;54.070;10.012;2022-12-18T06:58:26;13.63;;;7.30;;
30420;SDS011;17218;54.070;10.012;2022-12-18T07:00:53;11.17;;;7.13;;
30420;SDS011;17218;54.070;10.012;2022-12-18T07:03:19;10.90;;;6.17;;
30420;SDS011;17218;54.070;10.012;2022-12-18T07:05:46;12.57;;;6.90;;
30420;SDS011;17218;54.070;10.012;2022-12-18T07:08:14;11.53;;;6.57;;
30420;SDS011;17218;54.070;10.012;2022-12-18T07:10:41;9.67;;;5.90;;
30420;SDS011;17218;54.070;10.012;2022-12-18T07:13:08;11.87;;;6.80;;
30420;SDS011;17218;54.070;10.012;2022-12-18T07:15:35;8.90;;;6.67;;
30420;SDS011;17218;54.070;10.012;2022-12-18T07:18:01;12.13;;;6.50;;
30420;SDS011;17218;54.070;10.012;2022-12-18T07:20:28;8.83;;;6.47;;
30420;SDS011;17218;54.070;10.012;2022-12-18T07:22:55;9.33;;;6.77;;
30420;SDS011;17218;54.070;10.012;2022-12-18T07:25:23;11.37;;;6.70;;
30420;SDS011;17218;54.070;10.012;2022-12-18T07:27:49;12.43;;;7.13;;
30420;SDS011;17218;54.070;10.012;2022-12-18T07:30:16;9.17;;;6.60;;
30420;SDS011;17218;54.070;10.012;2022-12-18T07:32:42;8.97;;;6.13;;
30420;SDS011;17218;54.070;10.012;2022-12-18T07:35:09;10.77;;;6.07;;
30420;SDS011;17218;54.070;10.012;2022-12-18T07:37:38;8.33;;;5.40;;
30420;SDS011;17218;54.070;10.012;2022-12-18T07:40:05;10.10;;;6.60;;
30420;SDS011;17218;54.070;10.012;2022-12-18T07:42:34;8.37;;;5.73;;
30420;SDS011;17218;54.070;10.012;2022-12-18T07:45:02;11.73;;;6.50;;
30420;SDS011;17218;54.070;10.012;2022-12-18T07:47:33;10.33;;;5.50;;
30420;SDS011;17218;54.070;10.012;2022-12-18T07:50:01;8.20;;;6.17;;
30420;SDS011;17218;54.070;10.012;2022-12-18T07:52:28;11.27;;;6.93;;
30420;SDS011;17218;54.070;10.012;2022-12-18T07:54:54;12.20;;;6.83;;
30420;SDS011;17218;54.070;10.012;2022-12-18T07:57:21;11.60;;;7.13;;
30420;SDS011;17218;54.070;10.012;2022-12-18T07:59:49;10.10;;;6.20;;
30420;SDS011;17218;54.070;10.012;2022-12-18T08:02:15;10.47;;;6.73;;
30420;SDS011;17218;54.070;10.012;2022-12-18T08:04:42;12.00;;;7.00;;
30420;SDS011;17218;54.070;10.012;2022-12-18T08:07:09;10.83;;;6.90;;
30420;SDS011;17218;54.070;10.012;2022-12-18T08:09:35;55.97;;;20.30;;
30420;SDS011;17218;54.070;10.012;2022-12-18T08:12:02;18.30;;;8.47;;
30420;SDS011;17218;54.070;10.012;2022-12-18T08:14:29;12.20;;;7.17;;
30420;SDS011;17218;54.070;10.012;2022-12-18T08:16:57;13.97;;;7.67;;
30420;SDS011;17218;54.070;10.012;2022-12-18T08:19:23;13.87;;;7.43;;
30420;SDS011;17218;54.070;10.012;2022-12-18T08:21:50;12.83;;;7.27;;
30420;SDS011;17218;54.070;10.012;2022-12-18T08:24:17;10.73;;;7.10;;
30420;SDS011;17218;54.070;10.012;2022-12-18T08:26:43;12.70;;;7.63;;
30420;SDS011;17218;54.070;10.012;2022-12-18T08:29:10;12.83;;;7.47;;
30420;SDS011;17218;54.070;10.012;2022-12-18T08:31:37;13.20;;;7.73;;
30420;SDS011;17218;54.070;10.012;2022-12-18T08:34:05;15.57;;;8.27;;
30420;SDS011;17218;54.070;10.012;2022-12-18T08:36:31;12.53;;;8.03;;
30420;SDS011;17218;54.070;10.012;2022-12-18T08:38:58;15.37;;;7.87;;
30420;SDS011;17218;54.070;10.012;2022-12-18T08:41:24;12.60;;;8.13;;
30420;SDS011;17218;54.070;10.012;2022-12-18T08:43:51;12.90;;;7.70;;
30420;SDS011;17218;54.070;10.012;2022-12-18T08:46:35;10.47;;;7.67;;
30420;SDS011;17218;54.070;10.012;2022-12-18T08:49:05;12.00;;;8.03;;
30420;SDS011;17218;54.070;10.012;2022-12-18T08:51:32;14.37;;;7.53;;
30420;SDS011;17218;54.070;10.012;2022-12-18T08:53:59;12.00;;;8.30;;
30420;SDS011;17218;54.070;10.012;2022-12-18T08:56:26;14.33;;;7.60;;
30420;SDS011;17218;54.070;10.012;2022-12-18T08:58:53;13.47;;;8.83;;
30420;SDS011;17218;54.070;10.012;2022-12-18T09:01:20;15.53;;;9.70;;
30420;SDS011;17218;54.070;10.012;2022-12-18T09:03:48;18.53;;;10.60;;
30420;SDS011;17218;54.070;10.012;2022-12-18T09:06:16;15.23;;;9.50;;
30420;SDS011;17218;54.070;10.012;2022-12-18T09:08:44;16.83;;;10.30;;
30420;SDS011;17218;54.070;10.012;2022-12-18T09:11:14;17.47;;;9.33;;
30420;SDS011;17218;54.070;10.012;2022-12-18T09:13:44;14.30;;;10.10;;
30420;SDS011;17218;54.070;10.012;2022-12-18T09:16:11;13.47;;;9.43;;
30420;SDS011;17218;54.070;10.012;2022-12-18T09:18:37;14.87;;;9.07;;
30420;SDS011;17218;54.070;10.012;2022-12-18T09:21:08;14.63;;;9.90;;
30420;SDS011;17218;54.070;10.012;2022-12-18T09:23:36;12.67;;;9.20;;
30420;SDS011;17218;54.070;10.012;2022-12-18T09:26:03;15.37;;;9.70;;
30420;SDS011;17218;54.070;10.012;2022-12-18T09:28:30;17.17;;;9.43;;
30420;SDS011;17218;54.070;10.012;2022-12-18T09:30:57;12.40;;;8.63;;
30420;SDS011;17218;54.070;10.012;2022-12-18T09:33:23;13.40;;;8.93;;
30420;SDS011;17218;54.070;10.012;2022-12-18T09:35:50;12.23;;;7.97;;
30420;SDS011;17218;54.070;10.012;2022-12-18T09:38:17;10.57;;;7.97;;
30420;SDS011;17218;54.070;10.012;2022-12-18T09:40:49;12.10;;;7.53;;
30420;SDS011;17218;54.070;10.012;2022-12-18T09:43:19;13.13;;;7.77;;
30420;SDS011;17218;54.070;10.012;2022-12-18T09:45:51;13.17;;;7.87;;
30420;SDS011;17218;54.070;10.012;2022-12-18T09:48:23;11.77;;;7.90;;
30420;SDS011;17218;54.070;10.012;2022-12-18T09:50:54;9.77;;;7.77;;
30420;SDS011;17218;54.070;10.012;2022-12-18T09:53:26;10.93;;;7.57;;
30420;SDS011;17218;54.070;10.012;2022-12-18T09:55:57;13.93;;;8.20;;
30420;SDS011;17218;54.070;10.012;2022-12-18T09:58:28;13.20;;;8.70;;
30420;SDS011;17218;54.070;10.012;2022-12-18T10:00:59;11.23;;;7.67;;
30420;SDS011;17218;54.070;10.012;2022-12-18T10:03:25;13.40;;;8.43;;
30420;SDS011;17218;54.070;10.012;2022-12-18T10:05:55;10.97;;;7.17;;
30420;SDS011;17218;54.070;10.012;2022-12-18T10:08:32;9.73;;;6.53;;
30420;SDS011;17218;54.070;10.012;2022-12-18T10:11:11;9.73;;;6.40;;
30420;SDS011;17218;54.070;10.012;2022-12-18T10:13:48;10.00;;;7.00;;
30420;SDS011;17218;54.070;10.012;2022-12-18T10:16:19;10.47;;;6.67;;
30420;SDS011;17218;54.070;10.012;2022-12-18T10:19:00;7.33;;;6.07;;
30420;SDS011;17218;54.070;10.012;2022-12-18T10:21:36;10.13;;;7.30;;
30420;SDS011;17218;54.070;10.012;2022-12-18T10:24:11;11.53;;;7.40;;
30420;SDS011;17218;54.070;10.012;2022-12-18T10:26:49;13.23;;;6.90;;
30420;SDS011;17218;54.070;10.012;2022-12-18T10:29:18;12.30;;;6.23;;
30420;SDS011;17218;54.070;10.012;2022-12-18T10:31:45;11.77;;;8.17;;
30420;SDS011;17218;54.070;10.012;2022-12-18T10:34:15;9.00;;;6.83;;
30420;SDS011;17218;54.070;10.012;2022-12-18T10:36:41;12.03;;;7.33;;
30420;SDS011;17218;54.070;10.012;2022-12-18T10:39:19;10.97;;;6.93;;
30420;SDS011;17218;54.070;10.012;2022-12-18T10:41:52;12.00;;;7.43;;
30420;SDS011;17218;54.070;10.012;2022-12-18T10:44:36;10.53;;;7.50;;
30420;SDS011;17218;54.070;10.012;2022-12-18T10:47:03;11.60;;;8.07;;
30420;SDS011;17218;54.070;10.012;2022-12-18T10:49:36;11.53;;;7.03;;
30420;SDS011;17218;54.070;10.012;2022-12-18T10:52:11;12.13;;;7.27;;
30420;SDS011;17218;54.070;10.012;2022-12-18T10:54:45;10.70;;;7.23;;
30420;SDS011;17218;54.070;10.012;2022-12-18T10:57:17;12.73;;;7.60;;
30420;SDS011;17218;54.070;10.012;2022-12-18T10:59:57;11.03;;;7.90;;
30420;SDS011;17218;54.070;10.012;2022-12-18T11:02:26;11.40;;;8.13;;
30420;SDS011;17218;54.070;10.012;2022-12-18T11:04:59;13.50;;;8.07;;
30420;SDS011;17218;54.070;10.012;2022-12-18T11:07:26;11.40;;;7.30;;
30420;SDS011;17218;54.070;10.012;2022-12-18T11:10:16;10.43;;;7.23;;
30420;SDS011;17218;54.070;10.012;2022-12-18T11:12:45;9.47;;;6.37;;
30420;SDS011;17218;54.070;10.012;2022-12-18T11:15:16;11.50;;;7.07;;
30420;SDS011;17218;54.070;10.012;2022-12-18T11:17:46;10.30;;;7.17;;
30420;SDS011;17218;54.070;10.012;2022-12-18T11:20:27;9.53;;;6.90;;
30420;SDS011;17218;54.070;10.012;2022-12-18T11:22:58;11.23;;;7.23;;
30420;SDS011;17218;54.070;10.012;2022-12-18T11:25:29;8.60;;;6.53;;
30420;SDS011;17218;54.070;10.012;2022-12-18T11:27:58;11.83;;;7.20;;
30420;SDS011;17218;54.070;10.012;2022-12-18T11:30:27;12.57;;;7.53;;
30420;SDS011;17218;54.070;10.012;2022-12-18T11:32:58;10.87;;;7.43;;
30420;SDS011;17218;54.070;10.012;2022-12-18T11:35:37;12.20;;;8.80;;
30420;SDS011;17218;54.070;10.012;2022-12-18T11:40:58;11.60;;;8.17;;
30420;SDS011;17218;54.070;10.012;2022-12-18T11:43:29;13.87;;;8.33;;
30420;SDS011;17218;54.070;10.012;2022-12-18T11:46:02;13.00;;;9.00;;
30420;SDS011;17218;54.070;10.012;2022-12-18T11:48:32;10.33;;;8.07;;
30420;SDS011;17218;54.070;10.012;2022-12-18T11:51:05;9.63;;;7.67;;
30420;SDS011;17218;54.070;10.012;2022-12-18T11:53:37;10.63;;;7.27;;
30420;SDS011;17218;54.070;10.012;2022-12-18T11:56:08;11.07;;;6.53;;
30420;SDS011;17218;54.070;10.012;2022-12-18T11:58:55;9.20;;;7.23;;
30420;SDS011;17218;54.070;10.012;2022-12-18T12:01:38;11.13;;;6.70;;
30420;SDS011;17218;54.070;10.012;2022-12-18T12:07:25;11.20;;;7.17;;
30420;SDS011;17218;54.070;10.012;2022-12-18T12:10:03;12.30;;;8.00;;
30420;SDS011;17218;54.070;10.012;2022-12-18T12:12:39;16.23;;;9.40;;
30420;SDS011;17218;54.070;10.012;2022-12-18T12:15:24;10.43;;;7.73;;
30420;SDS011;17218;54.070;10.012;2022-12-18T12:18:01;14.83;;;8.77;;
30420;SDS011;17218;54.070;10.012;2022-12-18T12:20:39;13.53;;;9.20;;
30420;SDS011;17218;54.070;10.012;2022-12-18T12:23:18;13.30;;;8.63;;
30420;SDS011;17218;54.070;10.012;2022-12-18T12:25:53;11.50;;;8.70;;
30420;SDS011;17218;54.070;10.012;2022-12-18T12:28:31;14.77;;;7.73;;
30420;SDS011;17218;54.070;10.012;2022-12-18T12:31:15;13.93;;;8.70;;
30420;SDS011;17218;54.070;10.012;2022-12-18T12:33:55;13.53;;;8.23;;
30420;SDS011;17218;54.070;10.012;2022-12-18T12:36:29;12.40;;;8.20;;
30420;SDS011;17218;54.070;10.012;2022-12-18T12:39:05;15.77;;;8.57;;
30420;SDS011;17218;54.070;10.012;2022-12-18T12:41:34;13.93;;;7.87;;
30420;SDS011;17218;54.070;10.012;2022-12-18T12:44:22;11.03;;;7.73;;
30420;SDS011;17218;54.070;10.012;2022-12-18T12:46:55;13.37;;;8.93;;
30420;SDS011;17218;54.070;10.012;2022-12-18T12:49:25;15.33;;;8.70;;
30420;SDS011;17218;54.070;10.012;2022-12-18T12:51:56;17.00;;;9.03;;
30420;SDS011;17218;54.070;10.012;2022-12-18T12:54:26;19.10;;;9.30;;
30420;SDS011;17218;54.070;10.012;2022-12-18T12:56:58;14.03;;;8.17;;
30420;SDS011;17218;54.070;10.012;2022-12-18T12:59:34;11.87;;;7.83;;
30420;SDS011;17218;54.070;10.012;2022-12-18T13:02:14;13.50;;;8.50;;
30420;SDS011;17218;54.070;10.012;2022-12-18T13:04:49;14.80;;;9.10;;
30420;SDS011;17218;54.070;10.012;2022-12-18T13:07:23;12.70;;;8.20;;
30420;SDS011;17218;54.070;10.012;2022-12-18T13:12:54;12.90;;;7.37;;
30420;SDS011;17218;54.070;10.012;2022-12-18T13:15:21;12.47;;;8.57;;
30420;SDS011;17218;54.070;10.012;2022-12-18T13:18:03;14.70;;;8.77;;
30420;SDS011;17218;54.070;10.012;2022-12-18T13:20:38;12.53;;;7.63;;
30420;SDS011;17218;54.070;10.012;2022-12-18T13:23:19;12.50;;;7.60;;
30420;SDS011;17218;54.070;10.012;2022-12-18T13:25:54;12.03;;;7.70;;
30420;SDS011;17218;54.070;10.012;2022-12-18T13:28:22;10.50;;;7.17;;
30420;SDS011;17218;54.070;10.012;2022-12-18T13:30:51;12.17;;;7.07;;
30420;SDS011;17218;54.070;10.012;2022-12-18T13:48:14;16.53;;;9.83;;
30420;SDS011;17218;54.070;10.012;2022-12-18T13:50:47;17.20;;;9.73;;
30420;SDS011;17218;54.070;10.012;2022-12-18T13:53:15;15.23;;;9.87;;
30420;SDS011;17218;54.070;10.012;2022-12-18T13:55:47;21.77;;;11.87;;
30420;SDS011;17218;54.070;10.012;2022-12-18T13:58:15;19.30;;;11.33;;
30420;SDS011;17218;54.070;10.012;2022-12-18T14:00:42;22.43;;;11.83;;
30420;SDS011;17218;54.070;10.012;2022-12-18T14:03:15;17.77;;;11.90;;
30420;SDS011;17218;54.070;10.012;2022-12-18T14:05:45;21.73;;;12.63;;
30420;SDS011;17218;54.070;10.012;2022-12-18T14:08:17;20.53;;;11.80;;
30420;SDS011;17218;54.070;10.012;2022-12-18T14:10:45;20.77;;;12.10;;
30420;SDS011;17218;54.070;10.012;2022-12-18T14:13:15;22.73;;;13.20;;
30420;SDS011;17218;54.070;10.012;2022-12-18T14:15:47;23.97;;;11.47;;
30420;SDS011;17218;54.070;10.012;2022-12-18T14:18:19;22.47;;;12.70;;
30420;SDS011;17218;54.070;10.012;2022-12-18T14:20:49;19.00;;;11.80;;
30420;SDS011;17218;54.070;10.012;2022-12-18T14:23:30;20.57;;;11.70;;
30420;SDS011;17218;54.070;10.012;2022-12-18T14:25:59;19.87;;;11.73;;
30420;SDS011;17218;54.070;10.012;2022-12-18T14:28:26;23.50;;;11.93;;
30420;SDS011;17218;54.070;10.012;2022-12-18T14:30:53;22.83;;;11.97;;
30420;SDS011;17218;54.070;10.012;2022-12-18T14:33:21;18.23;;;10.70;;
30420;SDS011;17218;54.070;10.012;2022-12-18T14:35:54;21.10;;;11.47;;
30420;SDS011;17218;54.070;10.012;2022-12-18T14:38:27;21.40;;;11.60;;
30420;SDS011;17218;54.070;10.012;2022-12-18T14:40:58;24.33;;;12.53;;
30420;SDS011;17218;54.070;10.012;2022-12-18T14:43:26;20.90;;;12.23;;
30420;SDS011;17218;54.070;10.012;2022-12-18T14:45:54;23.00;;;12.70;;
30420;SDS011;17218;54.070;10.012;2022-12-18T14:48:24;21.43;;;11.03;;
30420;SDS011;17218;54.070;10.012;2022-12-18T14:51:03;22.73;;;12.37;;
30420;SDS011;17218;54.070;10.012;2022-12-18T14:53:33;23.40;;;11.57;;
30420;SDS011;17218;54.070;10.012;2022-12-18T14:56:03;21.43;;;11.57;;
30420;SDS011;17218;54.070;10.012;2022-12-18T14:58:38;24.60;;;12.10;;
30420;SDS011;17218;54.070;10.012;2022-12-18T15:01:05;24.23;;;12.73;;